createdAt,value
2024-03-07T00:00:01.151Z,2.1
2024-03-07T00:01:01.538Z,2.1
2024-03-07T00:02:01.162Z,2.2
2024-03-07T00:03:01.501Z,2.1
2024-03-07T00:05:01.223Z,2
2024-03-07T00:06:01.697Z,2
2024-03-07T00:08:01.386Z,1.9
2024-03-07T00:09:01.411Z,1.9
2024-03-07T00:10:01.295Z,1.9
2024-03-07T00:11:01.448Z,1.9
2024-03-07T00:12:01.747Z,1.9
2024-03-07T00:14:01.188Z,2
2024-03-07T00:15:01.250Z,1.9
2024-03-07T00:16:01.195Z,1.8
2024-03-07T00:17:01.184Z,1.8
2024-03-07T00:18:02.018Z,1.9
2024-03-07T00:20:01.208Z,1.8
2024-03-07T00:21:01.624Z,1.8
2024-03-07T00:23:01.180Z,1.8
2024-03-07T00:24:01.130Z,1.8
2024-03-07T00:25:01.181Z,1.8
2024-03-07T00:26:01.119Z,1.7
2024-03-07T00:27:01.201Z,1.7
2024-03-07T00:28:01.122Z,1.7
2024-03-07T00:29:01.279Z,1.7
2024-03-07T00:30:01.978Z,1.7
2024-03-07T00:31:01.305Z,1.6
2024-03-07T00:32:01.220Z,1.6
2024-03-07T00:33:01.909Z,1.7
2024-03-07T00:34:27.270Z,1.6
2024-03-07T00:36:01.586Z,1.6
2024-03-07T00:37:01.193Z,1.5
2024-03-07T00:38:01.175Z,1.6
2024-03-07T00:39:01.147Z,1.5
2024-03-07T00:40:01.281Z,1.5
2024-03-07T00:41:01.100Z,1.5
2024-03-07T00:42:01.196Z,1.5
2024-03-07T00:43:01.136Z,1.6
2024-03-07T00:44:01.144Z,1.6
2024-03-07T00:45:01.180Z,1.4
2024-03-07T00:46:01.131Z,1.4
2024-03-07T00:47:01.195Z,1.5
2024-03-07T00:48:01.833Z,1.5
2024-03-07T00:50:01.254Z,1.5
2024-03-07T00:51:01.175Z,1.4
2024-03-07T00:52:01.180Z,1.5
2024-03-07T00:53:01.189Z,1.4
2024-03-07T00:54:01.204Z,1.3
2024-03-07T00:55:01.286Z,1.2
2024-03-07T00:56:01.157Z,1.2
2024-03-07T00:57:01.380Z,1.3
2024-03-07T00:58:01.119Z,1.4
2024-03-07T00:59:01.184Z,1.4
2024-03-07T01:00:01.873Z,1.4
2024-03-07T01:01:01.197Z,1.4
2024-03-07T01:02:01.193Z,1.4
2024-03-07T01:03:01.922Z,1.4
2024-03-07T01:05:01.238Z,1.8
2024-03-07T01:06:01.583Z,1.8
2024-03-07T01:07:01.157Z,1.7
2024-03-07T01:08:01.152Z,1.6
2024-03-07T01:09:01.218Z,1.7
2024-03-07T01:10:01.174Z,1.7
2024-03-07T01:11:01.407Z,1.6
2024-03-07T01:12:02.212Z,1.6
2024-03-07T01:14:01.259Z,1.6
2024-03-07T01:15:01.619Z,1.7
2024-03-07T01:17:01.218Z,1.7
2024-03-07T01:18:02.203Z,1.8
2024-03-07T01:20:01.237Z,1.8
2024-03-07T01:21:01.151Z,1.9
2024-03-07T01:22:01.192Z,1.8
2024-03-07T01:23:01.182Z,1.8
2024-03-07T01:24:01.492Z,1.8
2024-03-07T01:26:01.244Z,2
2024-03-07T01:27:02.022Z,2.1
2024-03-07T01:29:01.205Z,2.2
2024-03-07T01:30:01.515Z,2.3
2024-03-07T01:31:01.160Z,2.4
2024-03-07T01:32:01.220Z,2.6
2024-03-07T01:33:02.249Z,2.6
2024-03-07T01:34:01.088Z,2.6
2024-03-07T01:35:01.309Z,2.6
2024-03-07T01:36:01.341Z,2.6
2024-03-07T01:38:01.221Z,2.7
2024-03-07T01:39:01.507Z,2.8
2024-03-07T01:40:01.279Z,2.8
2024-03-07T01:41:01.207Z,2.9
2024-03-07T01:42:01.549Z,2.9
2024-03-07T01:43:01.132Z,2.9
2024-03-07T01:44:01.257Z,2.9
2024-03-07T01:45:01.533Z,2.9
2024-03-07T01:47:01.159Z,2.9
2024-03-07T01:48:02.418Z,2.9
2024-03-07T01:50:01.224Z,3.1
2024-03-07T01:51:01.580Z,3.1
2024-03-07T01:53:01.154Z,3
2024-03-07T01:54:01.596Z,3
2024-03-07T01:55:01.074Z,2.9
2024-03-07T01:56:01.250Z,2.9
2024-03-07T01:57:01.592Z,2.9
2024-03-07T01:58:01.133Z,2.9
2024-03-07T01:59:01.207Z,3
2024-03-07T02:00:01.231Z,3.1
2024-03-07T02:01:02.493Z,3.1
2024-03-07T02:03:01.717Z,3.1
2024-03-07T02:04:01.262Z,3.2
2024-03-07T02:05:01.211Z,3.2
2024-03-07T02:06:01.602Z,3.2
2024-03-07T02:07:01.125Z,3.2
2024-03-07T02:08:01.294Z,3.2
2024-03-07T02:09:01.417Z,3.2
2024-03-07T02:10:01.192Z,3.2
2024-03-07T02:11:01.452Z,3.2
2024-03-07T02:12:01.453Z,3.3
2024-03-07T02:14:01.232Z,3.3
2024-03-07T02:15:02.145Z,3.4
2024-03-07T02:17:01.308Z,3.4
2024-03-07T02:18:01.782Z,3.4
2024-03-07T02:19:01.129Z,3.4
2024-03-07T02:20:01.241Z,3.4
2024-03-07T02:21:01.646Z,3.4
2024-03-07T02:23:01.181Z,3.3
2024-03-07T02:24:01.197Z,3.4
2024-03-07T02:25:01.184Z,3.4
2024-03-07T02:26:01.260Z,3.4
2024-03-07T02:27:01.781Z,3.4
2024-03-07T02:28:01.419Z,3.4
2024-03-07T02:29:01.263Z,3.4
2024-03-07T02:30:01.325Z,3.4
2024-03-07T02:31:01.162Z,3.4
2024-03-07T02:32:01.241Z,3.4
2024-03-07T02:33:02.005Z,3.4
2024-03-07T02:34:01.139Z,3.5
2024-03-07T02:35:01.314Z,3.5
2024-03-07T02:36:01.932Z,3.5
2024-03-07T02:37:01.121Z,3.5
2024-03-07T02:38:01.201Z,3.5
2024-03-07T02:39:02.115Z,3.5
2024-03-07T02:40:01.097Z,3.6
2024-03-07T02:41:01.177Z,3.6
2024-03-07T02:42:01.618Z,3.6
2024-03-07T02:44:01.210Z,3.6
2024-03-07T02:45:01.230Z,3.6
2024-03-07T02:46:01.170Z,3.6
2024-03-07T02:47:01.205Z,3.6
2024-03-07T02:48:02.362Z,3.6
2024-03-07T02:50:01.348Z,3.7
2024-03-07T02:51:01.555Z,3.7
2024-03-07T02:53:01.239Z,3.8
2024-03-07T02:54:01.515Z,3.8
2024-03-07T02:55:01.169Z,3.8
2024-03-07T02:56:01.167Z,3.8
2024-03-07T02:57:01.447Z,3.8
2024-03-07T02:59:06.079Z,3.8
2024-03-07T03:01:01.240Z,3.7
2024-03-07T03:02:01.289Z,3.7
2024-03-07T03:03:01.458Z,3.7
2024-03-07T03:04:01.257Z,3.8
2024-03-07T03:05:01.382Z,3.8
2024-03-07T03:06:01.429Z,3.8
2024-03-07T03:07:01.172Z,3.8
2024-03-07T03:08:01.275Z,3.8
2024-03-07T03:09:01.217Z,3.8
2024-03-07T03:10:01.151Z,3.8
2024-03-07T03:11:01.451Z,3.8
2024-03-07T03:12:01.791Z,3.8
2024-03-07T03:13:03.053Z,3.9
2024-03-07T03:15:01.434Z,3.8
2024-03-07T03:16:01.148Z,3.9
2024-03-07T03:17:01.348Z,3.8
2024-03-07T03:18:03.938Z,3.9
2024-03-07T03:20:01.162Z,3.9
2024-03-07T03:21:01.410Z,3.9
2024-03-07T03:23:22.860Z,3.9
2024-03-07T03:25:01.189Z,3.9
2024-03-07T03:26:01.296Z,3.9
2024-03-07T03:27:01.732Z,3.9
2024-03-07T03:28:01.160Z,3.9
2024-03-07T03:29:01.170Z,3.9
2024-03-07T03:30:01.548Z,3.9
2024-03-07T03:31:01.158Z,3.9
2024-03-07T03:32:01.223Z,3.9
2024-03-07T03:33:01.760Z,4
2024-03-07T03:35:01.181Z,4.1
2024-03-07T03:36:01.845Z,4.1
2024-03-07T03:38:01.281Z,4.1
2024-03-07T03:39:01.590Z,4.1
2024-03-07T03:40:01.165Z,4.1
2024-03-07T03:42:01.565Z,4.2
2024-03-07T03:44:01.144Z,4.2
2024-03-07T03:45:01.200Z,4.2
2024-03-07T03:46:01.238Z,4.2
2024-03-07T03:47:01.147Z,4.2
2024-03-07T03:48:02.677Z,4.4
2024-03-07T03:50:01.988Z,4.4
2024-03-07T03:51:01.327Z,4.4
2024-03-07T03:53:01.169Z,4.4
2024-03-07T03:54:01.474Z,4.5
2024-03-07T03:56:01.289Z,4.4
2024-03-07T03:57:01.460Z,4.5
2024-03-07T03:58:01.147Z,4.6
2024-03-07T03:59:01.182Z,4.6
2024-03-07T04:00:01.256Z,4.6
2024-03-07T04:01:01.164Z,4.6
2024-03-07T04:02:01.253Z,4.6
2024-03-07T04:03:01.500Z,4.6
2024-03-07T04:05:01.225Z,4.6
2024-03-07T04:06:01.673Z,4.6
2024-03-07T04:08:01.241Z,4.6
2024-03-07T04:09:01.499Z,4.6
2024-03-07T04:11:01.710Z,4.7
2024-03-07T04:12:02.367Z,4.7
2024-03-07T04:13:01.185Z,4.7
2024-03-07T04:14:01.201Z,4.7
2024-03-07T04:15:01.296Z,4.7
2024-03-07T04:16:01.225Z,4.8
2024-03-07T04:17:01.328Z,4.8
2024-03-07T04:18:01.567Z,4.8
2024-03-07T04:19:01.270Z,4.8
2024-03-07T04:20:01.189Z,4.8
2024-03-07T04:21:02.161Z,4.8
2024-03-07T04:22:01.052Z,4.8
2024-03-07T04:23:01.276Z,4.8
2024-03-07T04:24:01.707Z,4.8
2024-03-07T04:26:01.175Z,4.8
2024-03-07T04:27:01.376Z,4.8
2024-03-07T04:28:01.092Z,4.8
2024-03-07T04:29:01.254Z,4.8
2024-03-07T04:30:01.196Z,4.8
2024-03-07T04:31:01.151Z,4.8
2024-03-07T04:32:01.186Z,4.8
2024-03-07T04:33:02.009Z,4.8
2024-03-07T04:34:01.123Z,4.8
2024-03-07T04:35:01.205Z,4.8
2024-03-07T04:36:01.750Z,4.8
2024-03-07T04:37:01.138Z,4.8
2024-03-07T04:38:01.149Z,4.8
2024-03-07T04:39:01.657Z,4.8
2024-03-07T04:40:01.198Z,4.8
2024-03-07T04:41:01.224Z,4.8
2024-03-07T04:42:01.599Z,4.8
2024-03-07T04:43:01.157Z,4.8
2024-03-07T04:44:01.282Z,4.8
2024-03-07T04:45:01.172Z,4.8
2024-03-07T04:46:01.137Z,4.8
2024-03-07T04:47:01.246Z,4.8
2024-03-07T04:48:02.193Z,4.8
2024-03-07T04:49:01.074Z,4.8
2024-03-07T04:50:01.317Z,4.8
2024-03-07T04:51:02.300Z,4.9
2024-03-07T04:53:01.318Z,4.9
2024-03-07T04:54:01.331Z,4.9
2024-03-07T04:55:01.215Z,4.9
2024-03-07T04:56:01.224Z,4.9
2024-03-07T04:57:01.561Z,4.9
2024-03-07T04:59:01.156Z,4.9
2024-03-07T05:00:01.428Z,4.9
2024-03-07T05:01:01.262Z,4.9
2024-03-07T05:02:01.259Z,4.9
2024-03-07T05:03:01.516Z,4.9
2024-03-07T05:04:01.572Z,4.9
2024-03-07T05:06:01.906Z,4.9
2024-03-07T05:08:01.201Z,4.9
2024-03-07T05:09:01.575Z,4.9
2024-03-07T05:11:01.435Z,4.9
2024-03-07T05:12:01.465Z,4.9
2024-03-07T05:13:01.148Z,4.9
2024-03-07T05:14:01.208Z,4.9
2024-03-07T05:15:02.127Z,4.9
2024-03-07T05:17:01.180Z,4.9
2024-03-07T05:18:01.901Z,4.9
2024-03-07T05:19:01.150Z,4.9
2024-03-07T05:20:01.279Z,4.9
2024-03-07T05:21:01.547Z,4.9
2024-03-07T05:22:01.157Z,5
2024-03-07T05:23:01.206Z,5
2024-03-07T05:24:01.576Z,5
2024-03-07T05:25:01.453Z,5
2024-03-07T05:26:01.130Z,5
2024-03-07T05:27:01.664Z,5
2024-03-07T05:28:01.180Z,5
2024-03-07T05:29:01.215Z,5
2024-03-07T05:30:01.794Z,5
2024-03-07T05:31:01.099Z,5
2024-03-07T05:32:01.216Z,5
2024-03-07T05:33:01.769Z,5
2024-03-07T05:35:01.179Z,5
2024-03-07T05:36:01.628Z,5
2024-03-07T05:37:01.103Z,5.1
2024-03-07T05:38:01.385Z,5.1
2024-03-07T05:39:01.385Z,5.1
2024-03-07T05:40:01.834Z,5.1
2024-03-07T05:41:01.199Z,5.1
2024-03-07T05:42:01.972Z,5.1
2024-03-07T05:43:01.132Z,5.1
2024-03-07T05:44:01.235Z,5.1
2024-03-07T05:45:02.195Z,5.1
2024-03-07T05:47:01.273Z,5.1
2024-03-07T05:48:01.487Z,5.1
2024-03-07T05:50:01.231Z,5.1
2024-03-07T05:51:01.938Z,5.1
2024-03-07T05:53:01.157Z,5.1
2024-03-07T05:54:01.221Z,5.1
2024-03-07T05:55:01.254Z,5.1
2024-03-07T05:56:01.162Z,5.1
2024-03-07T05:57:01.701Z,5.1
2024-03-07T05:59:01.228Z,5.1
2024-03-07T06:00:01.656Z,5.1
2024-03-07T06:01:01.269Z,5.1
2024-03-07T06:03:01.772Z,5.1
2024-03-07T06:04:01.153Z,5.2
2024-03-07T06:05:01.200Z,5.2
2024-03-07T06:06:01.515Z,5.2
2024-03-07T06:07:01.441Z,5.2
2024-03-07T06:09:01.455Z,5.2
2024-03-07T06:10:01.120Z,5.2
2024-03-07T06:11:01.473Z,5.2
2024-03-07T06:12:28.955Z,5.2
2024-03-07T06:14:01.167Z,5.2
2024-03-07T06:15:01.785Z,5.2
2024-03-07T06:16:01.186Z,5.2
2024-03-07T06:17:01.201Z,5.3
2024-03-07T06:18:02.060Z,5.3
2024-03-07T06:20:01.181Z,5.3
2024-03-07T06:21:01.573Z,5.3
2024-03-07T06:22:01.185Z,5.3
2024-03-07T06:23:01.196Z,5.3
2024-03-07T06:24:01.944Z,5.4
2024-03-07T06:26:01.278Z,5.4
2024-03-07T06:27:02.526Z,5.4
2024-03-07T06:29:01.223Z,5.4
2024-03-07T06:30:01.786Z,5.4
2024-03-07T06:31:01.085Z,5.4
2024-03-07T06:32:01.205Z,5.4
2024-03-07T06:33:01.830Z,5.4
2024-03-07T06:35:01.306Z,5.4
2024-03-07T06:36:01.806Z,5.4
2024-03-07T06:37:01.103Z,5.5
2024-03-07T06:38:01.231Z,5.5
2024-03-07T06:39:02.197Z,5.5
2024-03-07T06:40:01.582Z,5.5
2024-03-07T06:42:02.406Z,5.6
2024-03-07T06:43:01.439Z,5.6
2024-03-07T06:44:01.282Z,5.6
2024-03-07T06:45:01.649Z,5.6
2024-03-07T06:46:01.175Z,5.6
2024-03-07T06:47:01.099Z,5.7
2024-03-07T06:48:01.842Z,5.7
2024-03-07T06:49:01.382Z,5.7
2024-03-07T06:51:01.543Z,5.8
2024-03-07T06:52:01.244Z,5.8
2024-03-07T06:53:05.432Z,5.8
2024-03-07T06:55:01.184Z,5.8
2024-03-07T06:56:01.334Z,5.8
2024-03-07T06:57:02.046Z,5.8
2024-03-07T06:58:01.216Z,5.8
2024-03-07T06:59:01.179Z,5.8
2024-03-07T07:00:01.773Z,5.8
2024-03-07T07:01:01.503Z,5.8
2024-03-07T07:02:01.437Z,5.8
2024-03-07T07:03:01.231Z,5.9
2024-03-07T07:04:01.345Z,5.9
2024-03-07T07:05:01.202Z,5.9
2024-03-07T07:06:01.939Z,5.9
2024-03-07T07:07:01.077Z,5.9
2024-03-07T07:08:01.236Z,5.9
2024-03-07T07:09:02.057Z,5.9
2024-03-07T07:10:01.231Z,5.9
2024-03-07T07:11:01.624Z,5.9
2024-03-07T07:12:02.017Z,5.9
2024-03-07T07:14:01.274Z,5.9
2024-03-07T07:15:01.919Z,5.9
2024-03-07T07:16:01.856Z,5.9
2024-03-07T07:18:01.806Z,5.9
2024-03-07T07:19:01.138Z,5.9
2024-03-07T07:20:01.263Z,5.9
2024-03-07T07:21:01.897Z,5.9
2024-03-07T07:23:01.210Z,5.9
2024-03-07T07:24:01.856Z,5.9
2024-03-07T07:25:01.141Z,5.9
2024-03-07T07:26:01.222Z,5.9
2024-03-07T07:27:02.559Z,5.9
2024-03-07T07:29:01.145Z,5.9
2024-03-07T07:30:01.654Z,5.9
2024-03-07T07:32:01.188Z,5.9
2024-03-07T07:33:02.122Z,5.9
2024-03-07T07:35:01.204Z,5.9
2024-03-07T07:36:02.079Z,5.9
2024-03-07T07:37:01.123Z,5.9
2024-03-07T07:38:01.337Z,5.9
2024-03-07T07:39:01.626Z,5.9
2024-03-07T07:41:01.176Z,5.9
2024-03-07T07:42:01.592Z,5.9
2024-03-07T07:43:01.104Z,5.9
2024-03-07T07:44:01.169Z,6
2024-03-07T07:45:01.581Z,6
2024-03-07T07:46:01.133Z,6.1
2024-03-07T07:47:01.198Z,6.1
2024-03-07T07:48:02.321Z,6.2
2024-03-07T07:50:01.280Z,6.2
2024-03-07T07:51:01.857Z,6.4
2024-03-07T07:53:01.200Z,6.4
2024-03-07T07:54:01.530Z,6.5
2024-03-07T07:55:01.103Z,6.5
2024-03-07T07:56:01.253Z,6.5
2024-03-07T07:57:01.905Z,6.5
2024-03-07T07:59:01.260Z,6.5
2024-03-07T08:00:02.022Z,6.6
2024-03-07T08:01:01.551Z,6.6
2024-03-07T08:03:01.678Z,6.7
2024-03-07T08:04:01.137Z,6.6
2024-03-07T08:05:01.143Z,6.7
2024-03-07T08:06:02.024Z,6.7
2024-03-07T08:08:01.306Z,6.6
2024-03-07T08:09:01.547Z,6.7
2024-03-07T08:11:01.464Z,6.6
2024-03-07T08:12:01.955Z,6.6
2024-03-07T08:13:01.138Z,6.6
2024-03-07T08:14:01.261Z,6.5
2024-03-07T08:15:01.639Z,6.5
2024-03-07T08:16:01.221Z,6.5
2024-03-07T08:17:01.223Z,6.5
2024-03-07T08:18:03.035Z,6.5
2024-03-07T08:20:01.207Z,6.5
2024-03-07T08:21:01.564Z,6.6
2024-03-07T08:22:01.137Z,6.6
2024-03-07T08:23:01.625Z,6.6
2024-03-07T08:24:01.770Z,6.6
2024-03-07T08:26:01.259Z,6.6
2024-03-07T08:27:01.763Z,6.6
2024-03-07T08:29:01.255Z,6.7
2024-03-07T08:30:01.766Z,6.8
2024-03-07T08:32:01.212Z,6.9
2024-03-07T08:33:02.309Z,6.9
2024-03-07T08:35:01.205Z,7
2024-03-07T08:36:01.583Z,7
2024-03-07T08:37:01.266Z,7.1
2024-03-07T08:38:01.164Z,7.2
2024-03-07T08:39:01.767Z,7.2
2024-03-07T08:41:01.243Z,7.3
2024-03-07T08:42:01.723Z,7.3
2024-03-07T08:44:01.275Z,7.4
2024-03-07T08:45:01.866Z,7.4
2024-03-07T08:46:01.117Z,7.5
2024-03-07T08:47:01.248Z,7.6
2024-03-07T08:48:02.122Z,7.6
2024-03-07T08:50:01.379Z,7.6
2024-03-07T08:51:01.383Z,7.6
2024-03-07T08:52:03.510Z,7.6
2024-03-07T08:54:01.566Z,7.5
2024-03-07T08:55:01.171Z,7.6
2024-03-07T08:56:01.250Z,7.6
2024-03-07T08:57:01.571Z,7.6
2024-03-07T08:58:01.140Z,7.6
2024-03-07T08:59:01.196Z,7.6
2024-03-07T09:00:01.845Z,7.5
2024-03-07T09:01:01.681Z,7.5
2024-03-07T09:02:01.161Z,7.6
2024-03-07T09:03:05.524Z,7.6
2024-03-07T09:05:01.267Z,7.6
2024-03-07T09:06:01.605Z,7.6
2024-03-07T09:07:01.178Z,7.8
2024-03-07T09:08:01.282Z,7.8
2024-03-07T09:09:01.726Z,7.9
2024-03-07T09:10:01.180Z,7.9
2024-03-07T09:11:01.788Z,8.1
2024-03-07T09:12:02.761Z,8.1
2024-03-07T09:13:01.505Z,8.1
2024-03-07T09:14:01.198Z,7.9
2024-03-07T09:15:02.081Z,7.8
2024-03-07T09:16:01.124Z,7.8
2024-03-07T09:17:01.255Z,7.9
2024-03-07T09:18:02.120Z,7.9
2024-03-07T09:19:01.393Z,8.1
2024-03-07T09:20:01.262Z,8.2
2024-03-07T09:21:01.439Z,8.5
2024-03-07T09:23:01.164Z,8.6
2024-03-07T09:24:01.938Z,8.5
2024-03-07T09:25:01.101Z,8.6
2024-03-07T09:26:01.258Z,8.6
2024-03-07T09:27:01.814Z,8.6
2024-03-07T09:28:01.087Z,8.6
2024-03-07T09:29:01.206Z,8.8
2024-03-07T09:30:01.929Z,8.7
2024-03-07T09:31:01.151Z,8.4
2024-03-07T09:32:01.352Z,8.3
2024-03-07T09:33:02.237Z,8.5
2024-03-07T09:34:01.465Z,8.7
2024-03-07T09:36:02.277Z,8.5
2024-03-07T09:38:01.285Z,8.2
2024-03-07T09:39:01.904Z,8.3
2024-03-07T09:41:01.329Z,8.5
2024-03-07T09:42:02.211Z,8.6
2024-03-07T09:43:01.223Z,8.6
2024-03-07T09:44:01.177Z,8.6
2024-03-07T09:45:01.962Z,8.4
2024-03-07T09:46:01.131Z,8.4
2024-03-07T09:47:01.286Z,8.8
2024-03-07T09:48:02.328Z,8.8
2024-03-07T09:50:01.185Z,9.2
2024-03-07T09:51:01.973Z,9.3
2024-03-07T09:52:01.079Z,9.4
2024-03-07T09:53:01.359Z,9.3
2024-03-07T09:54:01.681Z,9.2
2024-03-07T09:56:01.211Z,8.6
2024-03-07T09:57:02.092Z,8.4
2024-03-07T09:59:01.284Z,8.6
2024-03-07T10:00:01.996Z,8.4
2024-03-07T10:02:01.261Z,8.2
2024-03-07T10:03:02.083Z,8.4
2024-03-07T10:04:01.041Z,8.2
2024-03-07T10:05:01.274Z,8.4
2024-03-07T10:06:01.558Z,8.8
2024-03-07T10:07:01.436Z,8.7
2024-03-07T10:09:01.720Z,8.3
2024-03-07T10:10:01.255Z,8.1
2024-03-07T10:11:01.519Z,7.9
2024-03-07T10:12:01.802Z,8.4
2024-03-07T10:13:02.857Z,8.6
2024-03-07T10:14:01.111Z,8.7
2024-03-07T10:15:01.900Z,8.5
2024-03-07T10:16:01.465Z,8.6
2024-03-07T10:17:01.214Z,8.5
2024-03-07T10:18:03.655Z,9
2024-03-07T10:20:01.314Z,10
2024-03-07T10:21:03.012Z,10.1
2024-03-07T10:22:01.138Z,9.9
2024-03-07T10:23:01.195Z,9.8
2024-03-07T10:24:01.619Z,9.8
2024-03-07T10:25:01.236Z,10.4
2024-03-07T10:26:01.311Z,10.2
2024-03-07T10:27:02.193Z,9.2
2024-03-07T10:28:01.311Z,8.6
2024-03-07T10:29:01.289Z,8.1
2024-03-07T10:30:02.230Z,7.9
2024-03-07T10:32:06.861Z,7.9
2024-03-07T10:34:01.513Z,7.7
2024-03-07T10:35:01.279Z,7.7
2024-03-07T10:36:01.822Z,7.7
2024-03-07T10:37:02.654Z,7.7
2024-03-07T10:39:01.519Z,7.8
2024-03-07T10:40:01.171Z,7.9
2024-03-07T10:41:01.249Z,7.9
2024-03-07T10:42:01.444Z,7.8
2024-03-07T10:43:01.788Z,7.8
2024-03-07T10:45:02.075Z,7.6
2024-03-07T10:47:01.309Z,7.6
2024-03-07T10:48:01.928Z,7.6
2024-03-07T10:49:01.261Z,7.5
2024-03-07T10:51:01.544Z,7.5
2024-03-07T10:52:01.161Z,7.4
2024-03-07T10:53:02.596Z,7.4
2024-03-07T10:55:17.277Z,7.4
2024-03-07T10:57:02.034Z,7.5
2024-03-07T10:59:01.261Z,7.7
2024-03-07T11:00:02.644Z,7.9
2024-03-07T11:02:01.583Z,10.5
2024-03-07T11:03:01.748Z,11.1
2024-03-07T11:04:02.715Z,11.1
2024-03-07T11:06:01.909Z,11.8
2024-03-07T11:07:01.202Z,11.9
2024-03-07T11:08:01.279Z,11.2
2024-03-07T11:09:01.680Z,10.5
2024-03-07T11:10:01.120Z,9.6
2024-03-07T11:11:01.371Z,9.1
2024-03-07T11:12:01.437Z,8.8
2024-03-07T11:13:01.182Z,8.6
2024-03-07T11:14:03.774Z,8.6
2024-03-07T11:16:01.189Z,8.5
2024-03-07T11:17:01.207Z,8.5
2024-03-07T11:18:02.101Z,8.4
2024-03-07T11:19:01.116Z,8.2
2024-03-07T11:20:01.213Z,8.2
2024-03-07T11:21:02.172Z,8.2
2024-03-07T11:23:01.251Z,8.2
2024-03-07T11:24:01.533Z,8.4
2024-03-07T11:25:01.163Z,8.5
2024-03-07T11:26:01.258Z,8.7
2024-03-07T11:27:01.967Z,8.8
2024-03-07T11:29:01.266Z,9.1
2024-03-07T11:30:01.792Z,9.1
2024-03-07T11:32:01.221Z,9
2024-03-07T11:33:01.718Z,8.8
2024-03-07T11:35:01.249Z,8.7
2024-03-07T11:36:01.359Z,8.8
2024-03-07T11:37:01.155Z,8.8
2024-03-07T11:38:01.477Z,8.7
2024-03-07T11:39:01.732Z,8.6
2024-03-07T11:41:01.206Z,8.5
2024-03-07T11:42:01.498Z,8.6
2024-03-07T11:43:01.287Z,8.6
2024-03-07T11:44:01.290Z,8.5
2024-03-07T11:45:02.084Z,8.6
2024-03-07T11:46:01.136Z,8.6
2024-03-07T11:47:05.105Z,8.5
2024-03-07T11:49:01.411Z,8.5
2024-03-07T11:50:01.464Z,8.4
2024-03-07T11:51:01.681Z,8.2
2024-03-07T11:53:01.253Z,8.4
2024-03-07T11:54:01.620Z,8.3
2024-03-07T11:55:01.183Z,8.3
2024-03-07T11:56:01.181Z,8.4
2024-03-07T11:57:02.182Z,8.6
2024-03-07T11:59:01.224Z,8.7
2024-03-07T12:00:01.622Z,8.5
2024-03-07T12:02:01.442Z,8.2
2024-03-07T12:03:01.484Z,8.3
2024-03-07T12:05:01.197Z,8.4
2024-03-07T12:06:01.529Z,8.6
2024-03-07T12:07:01.154Z,8.9
2024-03-07T12:08:01.292Z,9.1
2024-03-07T12:09:01.610Z,9.1
2024-03-07T12:11:02.061Z,8.7
2024-03-07T12:12:02.458Z,8.7
2024-03-07T12:13:01.069Z,8.4
2024-03-07T12:14:01.281Z,8.6
2024-03-07T12:15:02.143Z,8.6
2024-03-07T12:17:01.176Z,8.6
2024-03-07T12:18:01.775Z,8.6
2024-03-07T12:19:01.455Z,8.5
2024-03-07T12:20:01.330Z,8.6
2024-03-07T12:21:02.080Z,8.6
2024-03-07T12:23:01.193Z,8.5
2024-03-07T12:24:01.718Z,8.4
2024-03-07T12:26:01.268Z,8.6
2024-03-07T12:27:01.474Z,8.6
2024-03-07T12:28:01.115Z,8.6
2024-03-07T12:29:01.169Z,8.6
2024-03-07T12:30:01.920Z,8.6
2024-03-07T12:31:01.109Z,8.6
2024-03-07T12:32:01.230Z,8.6
2024-03-07T12:33:01.754Z,8.6
2024-03-07T12:34:01.605Z,8.6
2024-03-07T12:35:01.324Z,8.8
2024-03-07T12:36:02.994Z,8.7
2024-03-07T12:38:01.255Z,8.6
2024-03-07T12:39:01.846Z,8.5
2024-03-07T12:41:01.233Z,8.5
2024-03-07T12:42:01.952Z,8.5
2024-03-07T12:44:01.173Z,8.8
2024-03-07T12:45:02.631Z,8.7
2024-03-07T12:47:01.233Z,8.7
2024-03-07T12:48:01.953Z,8.8
2024-03-07T12:49:01.505Z,8.8
2024-03-07T12:51:03.871Z,8.8
2024-03-07T12:53:01.188Z,8.8
2024-03-07T12:54:01.608Z,9.1
2024-03-07T12:55:01.163Z,9.2
2024-03-07T12:56:01.228Z,9.2
2024-03-07T12:57:01.756Z,9.2
2024-03-07T12:58:01.158Z,9.4
2024-03-07T12:59:01.250Z,9.4
2024-03-07T13:00:02.380Z,9.5
2024-03-07T13:01:01.332Z,9.6
2024-03-07T13:02:01.229Z,9.4
2024-03-07T13:03:02.504Z,9.1
2024-03-07T13:04:01.117Z,9.1
2024-03-07T13:05:02.932Z,8.9
2024-03-07T13:07:01.311Z,8.9
2024-03-07T13:08:01.169Z,8.8
2024-03-07T13:09:01.998Z,8.8
2024-03-07T13:11:04.000Z,8.7
2024-03-07T13:12:01.425Z,8.7
2024-03-07T13:13:01.195Z,8.7
2024-03-07T13:14:01.347Z,8.7
2024-03-07T13:15:02.456Z,8.6
2024-03-07T13:17:01.362Z,8.6
2024-03-07T13:18:01.817Z,8.6
2024-03-07T13:19:01.745Z,8.5
2024-03-07T13:21:01.484Z,8.6
2024-03-07T13:22:01.276Z,8.6
2024-03-07T13:23:01.199Z,8.5
2024-03-07T13:24:02.558Z,8.6
2024-03-07T13:25:01.071Z,8.6
2024-03-07T13:26:01.282Z,8.7
2024-03-07T13:27:01.608Z,8.9
2024-03-07T13:28:01.536Z,8.8
2024-03-07T13:30:02.041Z,8.9
2024-03-07T13:31:01.078Z,8.9
2024-03-07T13:32:01.216Z,8.8
2024-03-07T13:33:02.182Z,8.7
2024-03-07T13:34:01.825Z,8.7
2024-03-07T13:36:01.602Z,8.8
2024-03-07T13:37:01.217Z,9
2024-03-07T13:40:01.349Z,8.9
2024-03-07T13:41:01.289Z,8.9
2024-03-07T13:42:01.666Z,8.9
2024-03-07T13:43:01.175Z,8.9
2024-03-07T13:44:01.804Z,8.8
2024-03-07T13:46:01.314Z,9.1
2024-03-07T13:47:01.310Z,9.2
2024-03-07T13:48:02.445Z,9.4
2024-03-07T13:50:01.234Z,9.6
2024-03-07T13:51:02.618Z,9.8
2024-03-07T13:53:01.187Z,9.7
2024-03-07T13:54:02.086Z,9.8
2024-03-07T13:56:03.636Z,9.6
2024-03-07T13:58:01.377Z,9.8
2024-03-07T13:59:01.236Z,9.8
2024-03-07T14:00:02.697Z,9.8
2024-03-07T14:02:01.235Z,9.6
2024-03-07T14:03:01.675Z,9.6
2024-03-07T14:05:01.254Z,9.4
2024-03-07T14:06:02.321Z,9.5
2024-03-07T14:08:01.363Z,9.8
2024-03-07T14:09:04.759Z,9.9
2024-03-07T14:11:01.611Z,9.5
2024-03-07T14:12:01.447Z,9.6
2024-03-07T14:14:01.261Z,9.4
2024-03-07T14:15:02.580Z,9.4
2024-03-07T14:17:01.172Z,8.9
2024-03-07T14:18:02.276Z,9.1
2024-03-07T14:19:01.311Z,9.2
2024-03-07T14:20:01.221Z,9.4
2024-03-07T14:21:01.536Z,9.4
2024-03-07T14:22:01.287Z,9.6
2024-03-07T14:23:01.263Z,9.7
2024-03-07T14:24:01.872Z,9.6
2024-03-07T14:25:01.139Z,9.6
2024-03-07T14:26:05.850Z,9.6
2024-03-07T14:28:01.231Z,9.4
2024-03-07T14:29:01.295Z,9.4
2024-03-07T14:30:02.317Z,9.2
2024-03-07T14:31:01.148Z,9.1
2024-03-07T14:32:01.270Z,9
2024-03-07T14:33:02.435Z,8.9
2024-03-07T14:35:01.283Z,8.9
2024-03-07T14:36:01.984Z,9.2
2024-03-07T14:38:01.244Z,9.5
2024-03-07T14:39:06.853Z,9.6
2024-03-07T14:41:01.273Z,9.7
2024-03-07T14:42:01.978Z,9.6
2024-03-07T14:43:01.149Z,9.6
2024-03-07T14:44:01.221Z,9.4
2024-03-07T14:45:08.129Z,9.2
2024-03-07T14:47:01.267Z,9
2024-03-07T14:48:01.948Z,8.9
2024-03-07T14:49:01.322Z,8.9
2024-03-07T14:50:01.281Z,8.7
2024-03-07T14:51:07.625Z,8.6
2024-03-07T14:53:01.320Z,8.6
2024-03-07T14:54:01.587Z,8.7
2024-03-07T14:55:01.428Z,8.6
2024-03-07T14:57:02.142Z,8.8
2024-03-07T14:58:01.139Z,8.8
2024-03-07T14:59:01.313Z,8.8
2024-03-07T15:00:01.718Z,9
2024-03-07T15:01:01.890Z,9.1
2024-03-07T15:03:02.344Z,9.1
2024-03-07T15:04:01.140Z,9
2024-03-07T15:05:01.190Z,9
2024-03-07T15:06:02.100Z,9.1
2024-03-07T15:07:01.179Z,9.1
2024-03-07T15:08:01.221Z,9.2
2024-03-07T15:09:01.956Z,9.1
2024-03-07T15:11:01.741Z,9.1
2024-03-07T15:12:02.071Z,9.1
2024-03-07T15:13:01.191Z,9.2
2024-03-07T15:14:01.325Z,9.3
2024-03-07T15:15:18.982Z,9.2
2024-03-07T15:17:01.168Z,9.2
2024-03-07T15:18:02.691Z,9.2
2024-03-07T15:20:01.247Z,9.3
2024-03-07T15:21:02.192Z,9.2
2024-03-07T15:22:01.146Z,9.3
2024-03-07T15:23:01.327Z,9.4
2024-03-07T15:24:01.993Z,9.6
2024-03-07T15:25:01.104Z,9.7
2024-03-07T15:26:01.251Z,9.9
2024-03-07T15:27:02.105Z,9.8
2024-03-07T15:29:01.179Z,9.4
2024-03-07T15:30:02.059Z,9.2
2024-03-07T15:31:01.161Z,9.2
2024-03-07T15:32:01.216Z,9.1
2024-03-07T15:33:01.970Z,9.1
2024-03-07T15:34:01.371Z,9.1
2024-03-07T15:36:02.006Z,9.1
2024-03-07T15:38:01.316Z,9
2024-03-07T15:39:01.626Z,8.9
2024-03-07T15:40:01.193Z,8.8
2024-03-07T15:41:02.236Z,8.8
2024-03-07T15:43:01.266Z,8.9
2024-03-07T15:44:01.227Z,9
2024-03-07T15:45:02.040Z,8.9
2024-03-07T15:47:01.206Z,9
2024-03-07T15:48:02.913Z,9.1
2024-03-07T15:50:01.231Z,9.1
2024-03-07T15:51:02.199Z,9.1
2024-03-07T15:53:01.628Z,9.1
2024-03-07T15:54:01.541Z,9.2
2024-03-07T15:55:01.414Z,9.2
2024-03-07T15:56:01.217Z,9.1
2024-03-07T15:57:02.398Z,9
2024-03-07T15:58:01.150Z,8.9
2024-03-07T15:59:01.225Z,8.9
2024-03-07T16:00:01.904Z,8.9
2024-03-07T16:01:01.119Z,8.9
2024-03-07T16:02:01.243Z,8.9
2024-03-07T16:03:02.374Z,8.9
2024-03-07T16:05:01.207Z,8.8
2024-03-07T16:06:01.756Z,8.8
2024-03-07T16:07:01.200Z,8.6
2024-03-07T16:08:01.401Z,8.7
2024-03-07T16:09:01.734Z,8.8
2024-03-07T16:11:01.397Z,8.7
2024-03-07T16:12:01.528Z,8.7
2024-03-07T16:13:01.143Z,8.8
2024-03-07T16:14:01.284Z,8.7
2024-03-07T16:15:02.248Z,8.7
2024-03-07T16:16:01.237Z,8.7
2024-03-07T16:17:01.301Z,8.7
2024-03-07T16:18:01.750Z,8.6
2024-03-07T16:19:01.646Z,8.7
2024-03-07T16:20:01.293Z,8.8
2024-03-07T16:21:01.904Z,8.6
2024-03-07T16:23:01.209Z,8.6
2024-03-07T16:24:01.493Z,8.6
2024-03-07T16:25:01.285Z,8.5
2024-03-07T16:26:01.276Z,8.5
2024-03-07T16:27:02.007Z,8.4
2024-03-07T16:29:01.267Z,8.4
2024-03-07T16:30:02.446Z,8.4
2024-03-07T16:32:01.518Z,8.3
2024-03-07T16:33:02.963Z,8.3
2024-03-07T16:34:01.449Z,8.3
2024-03-07T16:35:02.532Z,8.3
2024-03-07T16:37:01.273Z,8.3
2024-03-07T16:38:01.226Z,8.2